sensor_id;sensor_type;location;lat;lon;timestamp;temperature;humidity
15103;DHT22;7652;53.584;9.998;2022-08-19T00:01:46;20.80;99.90
15103;DHT22;7652;53.584;9.998;2022-08-19T00:04:54;20.70;99.90
15103;DHT22;7652;53.584;9.998;2022-08-19T00:07:57;20.70;99.90
15103;DHT22;7652;53.584;9.998;2022-08-19T00:11:00;20.70;99.90
15103;DHT22;7652;53.584;9.998;2022-08-19T00:14:04;20.70;99.90
15103;DHT22;7652;53.584;9.998;2022-08-19T00:17:09;20.70;99.90
15103;DHT22;7652;53.584;9.998;2022-08-19T00:20:14;20.70;99.90
15103;DHT22;7652;53.584;9.998;2022-08-19T00:23:19;20.80;99.90
15103;DHT22;7652;53.584;9.998;2022-08-19T00:26:22;20.70;99.90
15103;DHT22;7652;53.584;9.998;2022-08-19T00:29:25;20.80;99.90
15103;DHT22;7652;53.584;9.998;2022-08-19T00:32:30;20.70;99.90
15103;DHT22;7652;53.584;9.998;2022-08-19T00:35:34;20.80;99.90
15103;DHT22;7652;53.584;9.998;2022-08-19T00:38:39;20.80;99.90
15103;DHT22;7652;53.584;9.998;2022-08-19T00:41:44;20.80;99.90
15103;DHT22;7652;53.584;9.998;2022-08-19T00:44:49;20.70;99.90
15103;DHT22;7652;53.584;9.998;2022-08-19T00:47:54;20.70;99.90
15103;DHT22;7652;53.584;9.998;2022-08-19T00:50:57;20.70;99.90
15103;DHT22;7652;53.584;9.998;2022-08-19T00:54:02;20.70;99.90
15103;DHT22;7652;53.584;9.998;2022-08-19T00:57:09;20.80;99.90
15103;DHT22;7652;53.584;9.998;2022-08-19T01:00:16;20.70;99.90
15103;DHT22;7652;53.584;9.998;2022-08-19T01:03:21;20.70;99.90
15103;DHT22;7652;53.584;9.998;2022-08-19T01:06:25;20.80;99.90
15103;DHT22;7652;53.584;9.998;2022-08-19T01:09:28;20.70;99.90
15103;DHT22;7652;53.584;9.998;2022-08-19T01:12:32;20.70;99.90
15103;DHT22;7652;53.584;9.998;2022-08-19T01:15:42;20.60;99.90
15103;DHT22;7652;53.584;9.998;2022-08-19T01:18:48;20.60;99.90
15103;DHT22;7652;53.584;9.998;2022-08-19T01:21:55;20.60;99.90
15103;DHT22;7652;53.584;9.998;2022-08-19T01:25:16;20.60;99.90
15103;DHT22;7652;53.584;9.998;2022-08-19T01:28:24;20.70;99.90
15103;DHT22;7652;53.584;9.998;2022-08-19T01:31:37;20.70;99.90
15103;DHT22;7652;53.584;9.998;2022-08-19T01:34:42;20.70;99.90
15103;DHT22;7652;53.584;9.998;2022-08-19T01:37:50;20.70;99.90
15103;DHT22;7652;53.584;9.998;2022-08-19T01:40:55;20.60;99.90
15103;DHT22;7652;53.584;9.998;2022-08-19T01:43:58;20.60;99.90
15103;DHT22;7652;53.584;9.998;2022-08-19T01:47:19;20.60;99.90
15103;DHT22;7652;53.584;9.998;2022-08-19T01:50:23;20.60;99.90
15103;DHT22;7652;53.584;9.998;2022-08-19T01:53:26;20.60;99.90
15103;DHT22;7652;53.584;9.998;2022-08-19T01:56:36;20.70;99.90
15103;DHT22;7652;53.584;9.998;2022-08-19T01:59:41;20.60;99.90
15103;DHT22;7652;53.584;9.998;2022-08-19T02:02:45;20.60;99.90
15103;DHT22;7652;53.584;9.998;2022-08-19T02:05:54;20.60;99.90
15103;DHT22;7652;53.584;9.998;2022-08-19T02:08:58;20.50;99.90
15103;DHT22;7652;53.584;9.998;2022-08-19T02:12:03;20.50;99.90
15103;DHT22;7652;53.584;9.998;2022-08-19T02:15:07;20.50;99.90
15103;DHT22;7652;53.584;9.998;2022-08-19T02:18:10;20.50;99.90
15103;DHT22;7652;53.584;9.998;2022-08-19T02:21:13;20.50;99.90
15103;DHT22;7652;53.584;9.998;2022-08-19T02:24:17;20.50;99.90
15103;DHT22;7652;53.584;9.998;2022-08-19T02:27:22;20.50;99.90
15103;DHT22;7652;53.584;9.998;2022-08-19T02:30:25;20.50;99.90
15103;DHT22;7652;53.584;9.998;2022-08-19T02:33:28;20.50;99.90
15103;DHT22;7652;53.584;9.998;2022-08-19T02:36:31;20.50;99.90
15103;DHT22;7652;53.584;9.998;2022-08-19T02:39:34;20.40;99.90
15103;DHT22;7652;53.584;9.998;2022-08-19T02:42:38;20.30;99.90
15103;DHT22;7652;53.584;9.998;2022-08-19T02:45:42;20.30;99.90
15103;DHT22;7652;53.584;9.998;2022-08-19T02:48:46;20.20;99.90
15103;DHT22;7652;53.584;9.998;2022-08-19T02:51:49;20.20;99.90
15103;DHT22;7652;53.584;9.998;2022-08-19T02:54:52;20.20;99.90
15103;DHT22;7652;53.584;9.998;2022-08-19T02:57:57;20.10;99.90
15103;DHT22;7652;53.584;9.998;2022-08-19T03:01:00;20.20;99.90
15103;DHT22;7652;53.584;9.998;2022-08-19T03:04:05;20.20;99.90
15103;DHT22;7652;53.584;9.998;2022-08-19T03:07:08;20.20;99.90
15103;DHT22;7652;53.584;9.998;2022-08-19T03:10:12;20.30;99.90
15103;DHT22;7652;53.584;9.998;2022-08-19T03:13:17;20.30;99.90
15103;DHT22;7652;53.584;9.998;2022-08-19T03:16:23;20.30;99.90
15103;DHT22;7652;53.584;9.998;2022-08-19T03:19:26;20.30;99.90
15103;DHT22;7652;53.584;9.998;2022-08-19T03:22:30;20.20;99.90
15103;DHT22;7652;53.584;9.998;2022-08-19T03:25:37;20.20;99.90
15103;DHT22;7652;53.584;9.998;2022-08-19T03:28:42;20.10;99.90
15103;DHT22;7652;53.584;9.998;2022-08-19T03:32:00;20.10;99.90
15103;DHT22;7652;53.584;9.998;2022-08-19T03:35:06;20.10;99.90
15103;DHT22;7652;53.584;9.998;2022-08-19T03:38:09;20.10;99.90
15103;DHT22;7652;53.584;9.998;2022-08-19T03:41:14;20.10;99.90
15103;DHT22;7652;53.584;9.998;2022-08-19T03:44:21;20.10;99.90
15103;DHT22;7652;53.584;9.998;2022-08-19T03:47:24;20.10;99.90
15103;DHT22;7652;53.584;9.998;2022-08-19T03:50:27;20.00;99.90
15103;DHT22;7652;53.584;9.998;2022-08-19T03:53:31;20.10;99.90
15103;DHT22;7652;53.584;9.998;2022-08-19T03:56:36;20.10;99.90
15103;DHT22;7652;53.584;9.998;2022-08-19T03:59:41;20.10;99.90
15103;DHT22;7652;53.584;9.998;2022-08-19T04:02:44;19.90;99.90
15103;DHT22;7652;53.584;9.998;2022-08-19T04:06:09;20.00;99.90
15103;DHT22;7652;53.584;9.998;2022-08-19T04:09:13;19.90;99.90
15103;DHT22;7652;53.584;9.998;2022-08-19T04:12:16;19.90;99.90
15103;DHT22;7652;53.584;9.998;2022-08-19T04:15:23;19.90;99.90
15103;DHT22;7652;53.584;9.998;2022-08-19T04:18:26;19.90;99.90
15103;DHT22;7652;53.584;9.998;2022-08-19T04:21:37;19.80;99.90
15103;DHT22;7652;53.584;9.998;2022-08-19T04:24:40;19.90;99.90
15103;DHT22;7652;53.584;9.998;2022-08-19T04:27:43;19.90;99.90
15103;DHT22;7652;53.584;9.998;2022-08-19T04:30:51;19.90;99.90
15103;DHT22;7652;53.584;9.998;2022-08-19T04:33:55;19.90;99.90
15103;DHT22;7652;53.584;9.998;2022-08-19T04:36:59;19.90;99.90
15103;DHT22;7652;53.584;9.998;2022-08-19T04:40:05;19.90;99.90
15103;DHT22;7652;53.584;9.998;2022-08-19T04:43:26;19.90;99.90
15103;DHT22;7652;53.584;9.998;2022-08-19T04:46:30;20.00;99.90
15103;DHT22;7652;53.584;9.998;2022-08-19T04:49:41;20.00;99.90
15103;DHT22;7652;53.584;9.998;2022-08-19T04:52:44;20.00;99.90
15103;DHT22;7652;53.584;9.998;2022-08-19T04:55:47;20.00;99.90
15103;DHT22;7652;53.584;9.998;2022-08-19T04:58:50;20.00;99.90
15103;DHT22;7652;53.584;9.998;2022-08-19T05:01:54;19.90;99.90
15103;DHT22;7652;53.584;9.998;2022-08-19T05:04:58;19.90;99.90
15103;DHT22;7652;53.584;9.998;2022-08-19T05:08:02;19.90;99.90
15103;DHT22;7652;53.584;9.998;2022-08-19T05:11:09;19.90;99.90
15103;DHT22;7652;53.584;9.998;2022-08-19T05:14:15;19.80;99.90
15103;DHT22;7652;53.584;9.998;2022-08-19T05:17:19;19.80;99.90
15103;DHT22;7652;53.584;9.998;2022-08-19T05:20:29;19.90;99.90
15103;DHT22;7652;53.584;9.998;2022-08-19T05:23:49;19.90;99.90
15103;DHT22;7652;53.584;9.998;2022-08-19T05:26:53;19.90;99.90
15103;DHT22;7652;53.584;9.998;2022-08-19T05:29:58;19.80;99.90
15103;DHT22;7652;53.584;9.998;2022-08-19T05:33:03;19.80;99.90
15103;DHT22;7652;53.584;9.998;2022-08-19T05:36:06;19.80;99.90
15103;DHT22;7652;53.584;9.998;2022-08-19T05:39:12;19.80;99.90
15103;DHT22;7652;53.584;9.998;2022-08-19T05:42:15;19.80;99.90
15103;DHT22;7652;53.584;9.998;2022-08-19T05:45:19;19.80;99.90
15103;DHT22;7652;53.584;9.998;2022-08-19T05:48:24;19.80;99.90
15103;DHT22;7652;53.584;9.998;2022-08-19T05:51:28;19.80;99.90
15103;DHT22;7652;53.584;9.998;2022-08-19T05:54:31;19.80;99.90
15103;DHT22;7652;53.584;9.998;2022-08-19T05:57:34;19.80;99.90
15103;DHT22;7652;53.584;9.998;2022-08-19T06:00:37;19.80;99.90
15103;DHT22;7652;53.584;9.998;2022-08-19T06:03:43;19.80;99.90
15103;DHT22;7652;53.584;9.998;2022-08-19T06:06:47;19.80;99.90
15103;DHT22;7652;53.584;9.998;2022-08-19T06:09:50;19.80;99.90
15103;DHT22;7652;53.584;9.998;2022-08-19T06:13:01;19.70;99.90
15103;DHT22;7652;53.584;9.998;2022-08-19T06:16:06;19.80;99.90
15103;DHT22;7652;53.584;9.998;2022-08-19T06:19:12;19.70;99.90
15103;DHT22;7652;53.584;9.998;2022-08-19T06:22:16;19.80;99.90
15103;DHT22;7652;53.584;9.998;2022-08-19T06:25:19;19.80;99.90
15103;DHT22;7652;53.584;9.998;2022-08-19T06:28:22;19.80;99.90
15103;DHT22;7652;53.584;9.998;2022-08-19T06:31:28;19.80;99.90
15103;DHT22;7652;53.584;9.998;2022-08-19T06:34:36;19.90;99.90
15103;DHT22;7652;53.584;9.998;2022-08-19T06:37:40;19.90;99.90
15103;DHT22;7652;53.584;9.998;2022-08-19T06:40:44;20.10;99.90
15103;DHT22;7652;53.584;9.998;2022-08-19T06:43:47;20.10;99.90
15103;DHT22;7652;53.584;9.998;2022-08-19T06:46:55;20.10;99.90
15103;DHT22;7652;53.584;9.998;2022-08-19T06:50:00;20.10;99.90
15103;DHT22;7652;53.584;9.998;2022-08-19T06:53:06;20.20;99.90
15103;DHT22;7652;53.584;9.998;2022-08-19T06:56:09;20.20;99.90
15103;DHT22;7652;53.584;9.998;2022-08-19T06:59:14;20.20;99.90
15103;DHT22;7652;53.584;9.998;2022-08-19T07:02:18;20.20;99.90
15103;DHT22;7652;53.584;9.998;2022-08-19T07:05:24;20.20;99.90
15103;DHT22;7652;53.584;9.998;2022-08-19T07:08:27;20.20;99.90
15103;DHT22;7652;53.584;9.998;2022-08-19T07:11:30;20.20;99.90
15103;DHT22;7652;53.584;9.998;2022-08-19T07:14:35;20.20;99.90
15103;DHT22;7652;53.584;9.998;2022-08-19T07:17:39;20.20;99.90
15103;DHT22;7652;53.584;9.998;2022-08-19T07:20:44;20.30;99.90
15103;DHT22;7652;53.584;9.998;2022-08-19T07:23:48;20.30;99.90
15103;DHT22;7652;53.584;9.998;2022-08-19T07:26:53;20.40;99.90
15103;DHT22;7652;53.584;9.998;2022-08-19T07:29:56;20.40;99.90
15103;DHT22;7652;53.584;9.998;2022-08-19T07:33:00;20.30;99.90
15103;DHT22;7652;53.584;9.998;2022-08-19T07:36:07;20.40;99.90
15103;DHT22;7652;53.584;9.998;2022-08-19T07:39:15;20.40;99.90
15103;DHT22;7652;53.584;9.998;2022-08-19T07:42:19;20.50;99.90
15103;DHT22;7652;53.584;9.998;2022-08-19T07:45:23;20.50;99.90
15103;DHT22;7652;53.584;9.998;2022-08-19T07:48:27;20.50;99.90
15103;DHT22;7652;53.584;9.998;2022-08-19T07:51:31;20.60;99.90
15103;DHT22;7652;53.584;9.998;2022-08-19T07:54:39;20.50;99.90
15103;DHT22;7652;53.584;9.998;2022-08-19T07:57:42;20.60;99.90
15103;DHT22;7652;53.584;9.998;2022-08-19T08:00:50;20.70;99.90
15103;DHT22;7652;53.584;9.998;2022-08-19T08:03:55;20.70;99.90
15103;DHT22;7652;53.584;9.998;2022-08-19T08:07:18;20.70;99.90
15103;DHT22;7652;53.584;9.998;2022-08-19T08:10:38;20.70;99.90
15103;DHT22;7652;53.584;9.998;2022-08-19T08:13:43;20.60;99.90
15103;DHT22;7652;53.584;9.998;2022-08-19T08:16:46;20.60;99.90
15103;DHT22;7652;53.584;9.998;2022-08-19T08:19:49;20.60;99.90
15103;DHT22;7652;53.584;9.998;2022-08-19T08:22:54;20.60;99.90
15103;DHT22;7652;53.584;9.998;2022-08-19T08:26:15;20.60;99.90
15103;DHT22;7652;53.584;9.998;2022-08-19T08:29:20;20.70;99.90
15103;DHT22;7652;53.584;9.998;2022-08-19T08:32:26;20.60;99.90
15103;DHT22;7652;53.584;9.998;2022-08-19T08:35:30;20.70;99.90
15103;DHT22;7652;53.584;9.998;2022-08-19T08:38:34;20.70;99.90
15103;DHT22;7652;53.584;9.998;2022-08-19T08:41:49;20.70;99.90
15103;DHT22;7652;53.584;9.998;2022-08-19T08:44:59;20.70;99.90
15103;DHT22;7652;53.584;9.998;2022-08-19T08:48:15;20.60;99.90
15103;DHT22;7652;53.584;9.998;2022-08-19T08:51:37;20.60;99.90
15103;DHT22;7652;53.584;9.998;2022-08-19T08:54:48;20.60;99.90
15103;DHT22;7652;53.584;9.998;2022-08-19T08:58:00;20.70;99.90
15103;DHT22;7652;53.584;9.998;2022-08-19T09:01:04;20.70;99.90
15103;DHT22;7652;53.584;9.998;2022-08-19T09:04:07;20.70;99.90
15103;DHT22;7652;53.584;9.998;2022-08-19T09:07:22;20.70;99.90
15103;DHT22;7652;53.584;9.998;2022-08-19T09:10:43;20.80;99.90
15103;DHT22;7652;53.584;9.998;2022-08-19T09:13:56;20.80;99.90
15103;DHT22;7652;53.584;9.998;2022-08-19T09:17:02;20.90;99.90
15103;DHT22;7652;53.584;9.998;2022-08-19T09:20:15;20.90;99.90
15103;DHT22;7652;53.584;9.998;2022-08-19T09:23:20;20.90;99.90
15103;DHT22;7652;53.584;9.998;2022-08-19T09:26:29;20.90;99.90
15103;DHT22;7652;53.584;9.998;2022-08-19T09:29:53;20.90;99.90
15103;DHT22;7652;53.584;9.998;2022-08-19T09:32:56;21.00;99.90
15103;DHT22;7652;53.584;9.998;2022-08-19T09:36:05;21.00;99.90
15103;DHT22;7652;53.584;9.998;2022-08-19T09:39:09;21.10;99.90
15103;DHT22;7652;53.584;9.998;2022-08-19T09:42:18;21.10;99.90
15103;DHT22;7652;53.584;9.998;2022-08-19T09:45:30;21.20;99.90
15103;DHT22;7652;53.584;9.998;2022-08-19T09:48:34;21.20;99.90
15103;DHT22;7652;53.584;9.998;2022-08-19T09:51:39;21.30;99.90
15103;DHT22;7652;53.584;9.998;2022-08-19T09:54:42;21.30;99.90
15103;DHT22;7652;53.584;9.998;2022-08-19T09:57:55;21.40;99.90
15103;DHT22;7652;53.584;9.998;2022-08-19T10:00:59;21.50;99.90
15103;DHT22;7652;53.584;9.998;2022-08-19T10:04:02;21.50;99.90
15103;DHT22;7652;53.584;9.998;2022-08-19T10:07:21;21.50;99.90
15103;DHT22;7652;53.584;9.998;2022-08-19T10:10:36;21.40;99.90
15103;DHT22;7652;53.584;9.998;2022-08-19T10:13:45;21.30;99.90
15103;DHT22;7652;53.584;9.998;2022-08-19T10:16:49;21.20;99.90
15103;DHT22;7652;53.584;9.998;2022-08-19T10:19:53;21.30;99.90
15103;DHT22;7652;53.584;9.998;2022-08-19T10:22:57;21.40;99.90
15103;DHT22;7652;53.584;9.998;2022-08-19T10:26:01;21.40;99.90
15103;DHT22;7652;53.584;9.998;2022-08-19T10:29:06;21.40;99.90
15103;DHT22;7652;53.584;9.998;2022-08-19T10:32:10;21.50;99.90
15103;DHT22;7652;53.584;9.998;2022-08-19T10:35:15;21.60;99.90
15103;DHT22;7652;53.584;9.998;2022-08-19T10:38:24;21.60;99.90
15103;DHT22;7652;53.584;9.998;2022-08-19T10:41:35;21.60;99.90
15103;DHT22;7652;53.584;9.998;2022-08-19T10:44:40;21.60;99.90
15103;DHT22;7652;53.584;9.998;2022-08-19T10:47:44;21.60;99.90
15103;DHT22;7652;53.584;9.998;2022-08-19T10:50:48;21.60;99.90
15103;DHT22;7652;53.584;9.998;2022-08-19T10:54:09;21.60;99.90
15103;DHT22;7652;53.584;9.998;2022-08-19T10:57:13;21.50;99.90
15103;DHT22;7652;53.584;9.998;2022-08-19T11:00:17;21.50;99.90
15103;DHT22;7652;53.584;9.998;2022-08-19T11:03:20;21.60;99.90
15103;DHT22;7652;53.584;9.998;2022-08-19T11:06:24;21.60;99.90
15103;DHT22;7652;53.584;9.998;2022-08-19T11:09:35;21.60;99.90
15103;DHT22;7652;53.584;9.998;2022-08-19T11:12:40;21.60;99.90
15103;DHT22;7652;53.584;9.998;2022-08-19T11:15:44;21.50;99.90
15103;DHT22;7652;53.584;9.998;2022-08-19T11:18:53;21.60;99.90
15103;DHT22;7652;53.584;9.998;2022-08-19T11:22:00;21.70;99.90
15103;DHT22;7652;53.584;9.998;2022-08-19T11:25:05;21.70;99.90
15103;DHT22;7652;53.584;9.998;2022-08-19T11:28:08;21.80;99.90
15103;DHT22;7652;53.584;9.998;2022-08-19T11:31:14;21.90;99.90
15103;DHT22;7652;53.584;9.998;2022-08-19T11:34:22;22.20;99.90
15103;DHT22;7652;53.584;9.998;2022-08-19T11:37:25;22.40;99.90
15103;DHT22;7652;53.584;9.998;2022-08-19T11:40:28;22.60;99.90
15103;DHT22;7652;53.584;9.998;2022-08-19T11:43:32;22.70;99.90
15103;DHT22;7652;53.584;9.998;2022-08-19T11:46:40;22.80;99.90
15103;DHT22;7652;53.584;9.998;2022-08-19T11:49:47;22.90;99.90
15103;DHT22;7652;53.584;9.998;2022-08-19T11:52:54;22.90;99.90
15103;DHT22;7652;53.584;9.998;2022-08-19T11:55:57;23.00;99.90
15103;DHT22;7652;53.584;9.998;2022-08-19T11:59:00;23.10;99.90
15103;DHT22;7652;53.584;9.998;2022-08-19T12:02:05;23.00;99.90
15103;DHT22;7652;53.584;9.998;2022-08-19T12:05:09;22.90;99.90
15103;DHT22;7652;53.584;9.998;2022-08-19T12:08:14;22.80;99.90
15103;DHT22;7652;53.584;9.998;2022-08-19T12:11:17;22.80;99.90
15103;DHT22;7652;53.584;9.998;2022-08-19T12:14:21;22.80;99.90
15103;DHT22;7652;53.584;9.998;2022-08-19T12:17:26;22.80;99.90
15103;DHT22;7652;53.584;9.998;2022-08-19T12:20:30;22.80;99.90
15103;DHT22;7652;53.584;9.998;2022-08-19T12:23:36;22.80;99.90
15103;DHT22;7652;53.584;9.998;2022-08-19T12:26:39;22.90;99.90
15103;DHT22;7652;53.584;9.998;2022-08-19T12:29:54;23.00;99.90
15103;DHT22;7652;53.584;9.998;2022-08-19T12:32:58;23.30;99.90
15103;DHT22;7652;53.584;9.998;2022-08-19T12:36:03;23.60;99.90
15103;DHT22;7652;53.584;9.998;2022-08-19T12:39:07;24.00;99.90
15103;DHT22;7652;53.584;9.998;2022-08-19T12:42:14;24.30;99.90
15103;DHT22;7652;53.584;9.998;2022-08-19T12:45:18;24.60;99.90
15103;DHT22;7652;53.584;9.998;2022-08-19T12:48:23;25.00;99.90
15103;DHT22;7652;53.584;9.998;2022-08-19T12:51:35;25.50;99.90
15103;DHT22;7652;53.584;9.998;2022-08-19T12:54:38;25.50;99.90
15103;DHT22;7652;53.584;9.998;2022-08-19T12:57:41;25.50;99.90
15103;DHT22;7652;53.584;9.998;2022-08-19T13:00:44;25.40;99.90
15103;DHT22;7652;53.584;9.998;2022-08-19T13:03:49;25.10;99.90
15103;DHT22;7652;53.584;9.998;2022-08-19T13:06:53;25.10;99.90
15103;DHT22;7652;53.584;9.998;2022-08-19T13:09:56;25.00;99.90
15103;DHT22;7652;53.584;9.998;2022-08-19T13:13:00;25.00;99.90
15103;DHT22;7652;53.584;9.998;2022-08-19T13:16:03;25.20;99.90
15103;DHT22;7652;53.584;9.998;2022-08-19T13:19:08;25.30;99.90
15103;DHT22;7652;53.584;9.998;2022-08-19T13:22:12;25.30;99.90
15103;DHT22;7652;53.584;9.998;2022-08-19T13:25:16;25.10;99.90
15103;DHT22;7652;53.584;9.998;2022-08-19T13:28:21;24.90;99.90
15103;DHT22;7652;53.584;9.998;2022-08-19T13:31:32;24.90;99.90
15103;DHT22;7652;53.584;9.998;2022-08-19T13:34:54;24.80;99.90
15103;DHT22;7652;53.584;9.998;2022-08-19T13:37:57;24.80;99.90
15103;DHT22;7652;53.584;9.998;2022-08-19T13:41:05;24.70;99.90
15103;DHT22;7652;53.584;9.998;2022-08-19T13:44:14;24.70;99.90
15103;DHT22;7652;53.584;9.998;2022-08-19T13:47:19;24.70;99.90
15103;DHT22;7652;53.584;9.998;2022-08-19T13:50:26;24.70;99.90
15103;DHT22;7652;53.584;9.998;2022-08-19T13:53:30;24.70;99.90
15103;DHT22;7652;53.584;9.998;2022-08-19T13:56:33;24.70;99.90
15103;DHT22;7652;53.584;9.998;2022-08-19T13:59:36;24.60;99.90
15103;DHT22;7652;53.584;9.998;2022-08-19T14:02:39;24.60;99.90
15103;DHT22;7652;53.584;9.998;2022-08-19T14:05:44;24.50;99.90
15103;DHT22;7652;53.584;9.998;2022-08-19T14:08:48;24.40;99.90
15103;DHT22;7652;53.584;9.998;2022-08-19T14:11:51;24.40;99.90
15103;DHT22;7652;53.584;9.998;2022-08-19T14:14:54;24.40;99.90
15103;DHT22;7652;53.584;9.998;2022-08-19T14:17:57;24.30;99.90
15103;DHT22;7652;53.584;9.998;2022-08-19T14:21:02;24.20;99.90
15103;DHT22;7652;53.584;9.998;2022-08-19T14:24:06;24.10;99.90
15103;DHT22;7652;53.584;9.998;2022-08-19T14:27:10;24.10;99.90
15103;DHT22;7652;53.584;9.998;2022-08-19T14:30:16;24.10;99.90
15103;DHT22;7652;53.584;9.998;2022-08-19T14:33:19;24.10;99.90
15103;DHT22;7652;53.584;9.998;2022-08-19T14:36:31;24.20;99.90
15103;DHT22;7652;53.584;9.998;2022-08-19T14:39:40;24.30;99.90
15103;DHT22;7652;53.584;9.998;2022-08-19T14:42:43;24.40;99.90
15103;DHT22;7652;53.584;9.998;2022-08-19T14:45:46;24.50;99.90
15103;DHT22;7652;53.584;9.998;2022-08-19T14:48:51;24.60;99.90
15103;DHT22;7652;53.584;9.998;2022-08-19T14:51:55;24.70;99.90
15103;DHT22;7652;53.584;9.998;2022-08-19T14:54:58;24.70;99.90
15103;DHT22;7652;53.584;9.998;2022-08-19T14:58:03;24.70;99.90
15103;DHT22;7652;53.584;9.998;2022-08-19T15:01:10;24.70;99.90
15103;DHT22;7652;53.584;9.998;2022-08-19T15:04:13;24.70;99.90
15103;DHT22;7652;53.584;9.998;2022-08-19T15:07:18;24.70;99.90
15103;DHT22;7652;53.584;9.998;2022-08-19T15:10:21;24.60;99.90
15103;DHT22;7652;53.584;9.998;2022-08-19T15:13:27;24.50;99.90
15103;DHT22;7652;53.584;9.998;2022-08-19T15:16:32;24.40;99.90
15103;DHT22;7652;53.584;9.998;2022-08-19T15:19:35;24.40;99.90
15103;DHT22;7652;53.584;9.998;2022-08-19T15:22:40;24.40;99.90
15103;DHT22;7652;53.584;9.998;2022-08-19T15:25:44;24.30;99.90
15103;DHT22;7652;53.584;9.998;2022-08-19T15:28:47;24.20;99.90
15103;DHT22;7652;53.584;9.998;2022-08-19T15:31:50;24.20;99.90
15103;DHT22;7652;53.584;9.998;2022-08-19T15:34:58;24.10;99.90
15103;DHT22;7652;53.584;9.998;2022-08-19T15:38:06;24.20;99.90
15103;DHT22;7652;53.584;9.998;2022-08-19T15:41:16;24.40;99.90
15103;DHT22;7652;53.584;9.998;2022-08-19T15:44:25;24.50;99.90
15103;DHT22;7652;53.584;9.998;2022-08-19T15:47:29;24.60;99.90
15103;DHT22;7652;53.584;9.998;2022-08-19T15:50:36;24.60;99.90
15103;DHT22;7652;53.584;9.998;2022-08-19T15:53:41;24.60;99.90
15103;DHT22;7652;53.584;9.998;2022-08-19T15:56:44;24.60;99.90
15103;DHT22;7652;53.584;9.998;2022-08-19T16:00:08;24.60;99.90
15103;DHT22;7652;53.584;9.998;2022-08-19T16:03:29;24.60;99.90
15103;DHT22;7652;53.584;9.998;2022-08-19T16:06:52;24.70;99.90
15103;DHT22;7652;53.584;9.998;2022-08-19T16:09:57;24.70;99.90
15103;DHT22;7652;53.584;9.998;2022-08-19T16:13:20;24.60;99.90
15103;DHT22;7652;53.584;9.998;2022-08-19T16:16:25;24.50;99.90
15103;DHT22;7652;53.584;9.998;2022-08-19T16:19:34;24.40;99.90
15103;DHT22;7652;53.584;9.998;2022-08-19T16:22:39;24.30;99.90
15103;DHT22;7652;53.584;9.998;2022-08-19T16:25:44;24.30;99.90
15103;DHT22;7652;53.584;9.998;2022-08-19T16:28:47;24.30;99.90
15103;DHT22;7652;53.584;9.998;2022-08-19T16:31:50;24.30;99.90
15103;DHT22;7652;53.584;9.998;2022-08-19T16:34:55;24.20;99.90
15103;DHT22;7652;53.584;9.998;2022-08-19T16:37:58;24.20;99.90
15103;DHT22;7652;53.584;9.998;2022-08-19T16:41:03;24.20;99.90
15103;DHT22;7652;53.584;9.998;2022-08-19T16:44:08;24.10;99.90
15103;DHT22;7652;53.584;9.998;2022-08-19T16:47:11;24.10;99.90
15103;DHT22;7652;53.584;9.998;2022-08-19T16:50:15;24.10;99.90
15103;DHT22;7652;53.584;9.998;2022-08-19T16:53:35;24.00;99.90
15103;DHT22;7652;53.584;9.998;2022-08-19T16:56:40;24.00;99.90
15103;DHT22;7652;53.584;9.998;2022-08-19T16:59:43;24.00;99.90
15103;DHT22;7652;53.584;9.998;2022-08-19T17:02:50;24.00;99.90
15103;DHT22;7652;53.584;9.998;2022-08-19T17:05:55;23.90;99.90
15103;DHT22;7652;53.584;9.998;2022-08-19T17:09:00;23.80;99.90
15103;DHT22;7652;53.584;9.998;2022-08-19T17:12:05;23.80;99.90
15103;DHT22;7652;53.584;9.998;2022-08-19T17:15:08;23.80;99.90
15103;DHT22;7652;53.584;9.998;2022-08-19T17:18:12;23.80;99.90
15103;DHT22;7652;53.584;9.998;2022-08-19T17:21:16;23.70;99.90
15103;DHT22;7652;53.584;9.998;2022-08-19T17:24:19;23.70;99.90
15103;DHT22;7652;53.584;9.998;2022-08-19T17:27:23;23.60;99.90
15103;DHT22;7652;53.584;9.998;2022-08-19T17:30:26;23.60;99.90
15103;DHT22;7652;53.584;9.998;2022-08-19T17:33:29;23.60;99.90
15103;DHT22;7652;53.584;9.998;2022-08-19T17:36:32;23.50;99.90
15103;DHT22;7652;53.584;9.998;2022-08-19T17:39:35;23.50;99.90
15103;DHT22;7652;53.584;9.998;2022-08-19T17:42:42;23.40;99.90
15103;DHT22;7652;53.584;9.998;2022-08-19T17:45:45;23.40;99.90
15103;DHT22;7652;53.584;9.998;2022-08-19T17:48:50;23.30;99.90
15103;DHT22;7652;53.584;9.998;2022-08-19T17:51:58;23.30;99.90
15103;DHT22;7652;53.584;9.998;2022-08-19T17:55:01;23.20;99.90
15103;DHT22;7652;53.584;9.998;2022-08-19T17:58:05;23.20;99.90
15103;DHT22;7652;53.584;9.998;2022-08-19T18:01:13;23.10;99.90
15103;DHT22;7652;53.584;9.998;2022-08-19T18:04:18;23.10;99.90
15103;DHT22;7652;53.584;9.998;2022-08-19T18:07:21;23.00;99.90
15103;DHT22;7652;53.584;9.998;2022-08-19T18:10:26;22.90;99.90
15103;DHT22;7652;53.584;9.998;2022-08-19T18:13:37;22.80;99.90
15103;DHT22;7652;53.584;9.998;2022-08-19T18:16:41;22.80;99.90
15103;DHT22;7652;53.584;9.998;2022-08-19T18:19:46;22.80;99.90
15103;DHT22;7652;53.584;9.998;2022-08-19T18:22:49;22.80;99.90
15103;DHT22;7652;53.584;9.998;2022-08-19T18:25:52;22.70;99.90
15103;DHT22;7652;53.584;9.998;2022-08-19T18:28:56;22.70;99.90
15103;DHT22;7652;53.584;9.998;2022-08-19T18:32:00;22.70;99.90
15103;DHT22;7652;53.584;9.998;2022-08-19T18:35:06;22.60;99.90
15103;DHT22;7652;53.584;9.998;2022-08-19T18:38:13;22.60;99.90
15103;DHT22;7652;53.584;9.998;2022-08-19T18:41:33;22.50;99.90
15103;DHT22;7652;53.584;9.998;2022-08-19T18:44:56;22.40;99.90
15103;DHT22;7652;53.584;9.998;2022-08-19T18:48:16;22.30;99.90
15103;DHT22;7652;53.584;9.998;2022-08-19T18:51:37;22.20;99.90
15103;DHT22;7652;53.584;9.998;2022-08-19T18:54:40;22.20;99.90
15103;DHT22;7652;53.584;9.998;2022-08-19T18:57:43;22.20;99.90
15103;DHT22;7652;53.584;9.998;2022-08-19T19:00:47;22.10;99.90
15103;DHT22;7652;53.584;9.998;2022-08-19T19:03:53;22.00;99.90
15103;DHT22;7652;53.584;9.998;2022-08-19T19:06:56;21.90;99.90
15103;DHT22;7652;53.584;9.998;2022-08-19T19:10:00;21.90;99.90
15103;DHT22;7652;53.584;9.998;2022-08-19T19:13:03;21.80;99.90
15103;DHT22;7652;53.584;9.998;2022-08-19T19:16:08;21.80;99.90
15103;DHT22;7652;53.584;9.998;2022-08-19T19:19:13;21.70;99.90
15103;DHT22;7652;53.584;9.998;2022-08-19T19:22:21;21.70;99.90
15103;DHT22;7652;53.584;9.998;2022-08-19T19:25:24;21.60;99.90
15103;DHT22;7652;53.584;9.998;2022-08-19T19:28:48;21.60;99.90
15103;DHT22;7652;53.584;9.998;2022-08-19T19:31:53;21.50;99.90
15103;DHT22;7652;53.584;9.998;2022-08-19T19:34:57;21.50;99.90
15103;DHT22;7652;53.584;9.998;2022-08-19T19:38:01;21.50;99.90
15103;DHT22;7652;53.584;9.998;2022-08-19T19:41:04;21.40;99.90
15103;DHT22;7652;53.584;9.998;2022-08-19T19:44:07;21.20;99.90
15103;DHT22;7652;53.584;9.998;2022-08-19T19:47:33;21.20;99.90
15103;DHT22;7652;53.584;9.998;2022-08-19T19:50:36;21.20;99.90
15103;DHT22;7652;53.584;9.998;2022-08-19T19:53:39;21.10;99.90